Time;durP1;ratioP1;P1;durP2;ratioP2;P2;SDS_P1;SDS_P2;PMS_P1;PMS_P2;Temp;Humidity;BMP_temperature;BMP_pressure;BME280_temperature;BME280_humidity;BME280_pressure;Samples;Min_cycle;Max_cycle;Signal;HPM_P1;HPM_P2
2022/04/22 00:00:23;;;;;;;2.80;2.60;;;;;;;;;;5000518;28;20673;-87
2022/04/22 00:02:49;;;;;;;2.97;2.00;;;;;;;;;;4985390;28;20977;-86
2022/04/22 00:05:17;;;;;;;3.08;2.10;;;;;;;;;;4988307;28;20680;-86
2022/04/22 00:07:43;;;;;;;3.40;2.20;;;;;;;;;;4989577;28;20306;-86
2022/04/22 00:10:10;;;;;;;2.40;1.80;;;;;;;;;;4989347;28;20223;-87
2022/04/22 00:12:37;;;;;;;2.47;2.28;;;;;;;;;;4993751;28;20305;-87
2022/04/22 00:15:03;;;;;;;7.50;2.95;;;;;;;;;;5002139;28;20188;-87
2022/04/22 00:17:29;;;;;;;2.72;2.47;;;;;;;;;;4986735;28;20695;-85
2022/04/22 00:19:55;;;;;;;4.75;2.28;;;;;;;;;;4999028;28;20180;-86
2022/04/22 00:22:21;;;;;;;2.03;1.93;;;;;;;;;;4992252;28;20192;-87
2022/04/22 00:24:47;;;;;;;7.50;2.77;;;;;;;;;;4993881;28;20465;-86
2022/04/22 00:27:13;;;;;;;2.55;2.35;;;;;;;;;;5003244;28;20430;-87
2022/04/22 00:29:39;;;;;;;3.80;2.20;;;;;;;;;;4985767;28;20214;-86
2022/04/22 00:32:05;;;;;;;2.13;1.93;;;;;;;;;;5002693;28;20430;-84
2022/04/22 00:34:31;;;;;;;2.97;2.67;;;;;;;;;;5001286;28;20794;-87
2022/04/22 00:36:57;;;;;;;2.55;2.35;;;;;;;;;;4983973;28;20219;-86
2022/04/22 00:39:24;;;;;;;2.83;2.13;;;;;;;;;;4999563;28;20183;-87
2022/04/22 00:41:50;;;;;;;6.90;2.88;;;;;;;;;;4993275;28;20510;-86
2022/04/22 00:44:16;;;;;;;3.80;2.55;;;;;;;;;;5005253;28;20213;-86
2022/04/22 00:46:42;;;;;;;2.83;2.55;;;;;;;;;;4989356;28;20183;-86
2022/04/22 00:49:08;;;;;;;2.73;2.53;;;;;;;;;;4997002;28;20203;-87
2022/04/22 00:51:34;;;;;;;4.50;2.97;;;;;;;;;;5008054;28;20509;-87
2022/04/22 00:54:02;;;;;;;2.58;2.00;;;;;;;;;;5001533;28;20823;-86
2022/04/22 00:56:29;;;;;;;3.05;2.67;;;;;;;;;;4986356;28;20199;-86
2022/04/22 00:58:57;;;;;;;2.88;1.95;;;;;;;;;;4989255;28;20175;-86
2022/04/22 01:01:24;;;;;;;3.30;2.28;;;;;;;;;;4988529;28;20180;-86
2022/04/22 01:12:09;;;;;;;2.67;2.47;;;;;;;;;;4987742;28;20226;-87
2022/04/22 01:14:35;;;;;;;5.88;3.03;;;;;;;;;;5000720;28;20250;-86
2022/04/22 01:17:01;;;;;;;2.40;2.20;;;;;;;;;;5003725;28;20261;-86
2022/04/22 01:19:27;;;;;;;2.90;1.87;;;;;;;;;;4991580;28;20270;-87
2022/04/22 01:21:53;;;;;;;4.60;2.97;;;;;;;;;;4994025;28;20441;-86
2022/04/22 01:24:19;;;;;;;4.75;3.03;;;;;;;;;;5000111;28;20190;-85
2022/04/22 01:26:49;;;;;;;3.00;2.50;;;;;;;;;;4985268;28;20179;-86
2022/04/22 01:29:15;;;;;;;3.15;2.40;;;;;;;;;;5005202;28;20892;-86
2022/04/22 01:31:43;;;;;;;4.35;2.72;;;;;;;;;;4988936;28;20215;-86
2022/04/22 01:34:09;;;;;;;2.83;2.55;;;;;;;;;;4988414;28;20191;-86
2022/04/22 01:36:35;;;;;;;2.33;2.13;;;;;;;;;;4990995;28;20209;-86
2022/04/22 01:39:01;;;;;;;4.80;2.40;;;;;;;;;;4992146;28;20187;-86
2022/04/22 01:41:29;;;;;;;4.18;2.78;;;;;;;;;;4985641;28;20426;-86
2022/04/22 01:43:55;;;;;;;3.78;2.30;;;;;;;;;;4997981;28;20175;-86
2022/04/22 01:46:21;;;;;;;3.78;2.20;;;;;;;;;;5000402;28;20222;-85
2022/04/22 01:48:47;;;;;;;2.42;2.22;;;;;;;;;;5000878;28;20179;-86
2022/04/22 01:51:13;;;;;;;3.05;2.35;;;;;;;;;;5000135;28;20272;-87
2022/04/22 01:53:39;;;;;;;2.78;2.47;;;;;;;;;;4984372;28;20191;-86
2022/04/22 01:56:05;;;;;;;2.43;2.10;;;;;;;;;;4988550;28;20266;-87
2022/04/22 01:58:32;;;;;;;2.78;1.90;;;;;;;;;;4987969;28;20446;-87
2022/04/22 02:00:58;;;;;;;2.55;2.35;;;;;;;;;;4988093;28;20184;-86
2022/04/22 02:03:24;;;;;;;2.83;2.58;;;;;;;;;;4990686;28;20692;-86
2022/04/22 02:05:50;;;;;;;4.60;2.60;;;;;;;;;;4986688;28;20218;-87
2022/04/22 02:08:16;;;;;;;4.65;2.67;;;;;;;;;;5007835;28;20175;-87
2022/04/22 02:10:42;;;;;;;4.95;2.63;;;;;;;;;;5004355;28;20190;-86
2022/04/22 02:13:08;;;;;;;3.15;2.78;;;;;;;;;;5003200;28;20222;-86
2022/04/22 02:15:35;;;;;;;3.20;2.90;;;;;;;;;;5005064;28;20210;-87
2022/04/22 02:18:01;;;;;;;2.88;2.38;;;;;;;;;;5003812;28;20482;-87
2022/04/22 02:20:27;;;;;;;3.75;2.83;;;;;;;;;;4989026;28;20171;-87
2022/04/22 02:22:53;;;;;;;3.30;3.00;;;;;;;;;;5000316;28;20183;-88
2022/04/22 02:25:19;;;;;;;2.78;2.45;;;;;;;;;;4999598;28;20222;-87
2022/04/22 02:30:30;;;;;;;2.92;2.42;;;;;;;;;;5006234;28;20206;-87
2022/04/22 02:32:57;;;;;;;2.67;2.08;;;;;;;;;;5002413;28;20236;-87
2022/04/22 02:35:23;;;;;;;2.78;2.58;;;;;;;;;;4989112;28;20171;-87
2022/04/22 02:37:49;;;;;;;3.78;2.35;;;;;;;;;;4999833;28;20207;-86
2022/04/22 02:45:26;;;;;;;3.28;2.45;;;;;;;;;;5004827;28;20198;-86
2022/04/22 02:45:47;;;;;;;3.20;2.45;;;;;;;;;;5003707;28;20214;-87
2022/04/22 02:48:13;;;;;;;2.70;2.50;;;;;;;;;;5002399;28;20187;-87
2022/04/22 02:50:39;;;;;;;10.15;3.55;;;;;;;;;;4988008;28;20175;-87
2022/04/22 02:53:05;;;;;;;2.43;2.23;;;;;;;;;;4990271;28;20183;-87
2022/04/22 02:55:31;;;;;;;4.38;2.30;;;;;;;;;;5001672;28;20502;-87
2022/04/22 02:57:57;;;;;;;3.80;2.63;;;;;;;;;;4997122;28;20212;-87
2022/04/22 03:00:23;;;;;;;2.92;2.50;;;;;;;;;;4992050;28;20215;-87
2022/04/22 03:02:49;;;;;;;2.63;2.42;;;;;;;;;;4987262;28;20199;-87
2022/04/22 03:05:16;;;;;;;3.90;2.70;;;;;;;;;;5006590;28;20175;-87
2022/04/22 03:07:42;;;;;;;3.60;3.00;;;;;;;;;;4991488;28;20203;-87
2022/04/22 03:10:08;;;;;;;3.33;2.90;;;;;;;;;;4997586;28;20222;-87
2022/04/22 03:12:34;;;;;;;4.03;2.95;;;;;;;;;;4995460;28;20256;-87
2022/04/22 03:15:01;;;;;;;3.35;3.03;;;;;;;;;;4982683;28;20195;-86
2022/04/22 03:17:27;;;;;;;6.03;2.58;;;;;;;;;;4985902;28;20207;-86
2022/04/22 03:19:53;;;;;;;2.80;2.60;;;;;;;;;;4996708;28;20176;-86
2022/04/22 03:22:19;;;;;;;2.92;2.70;;;;;;;;;;4982804;28;20184;-86
2022/04/22 03:24:45;;;;;;;3.13;2.83;;;;;;;;;;4984805;28;20190;-86
2022/04/22 03:27:11;;;;;;;3.65;3.35;;;;;;;;;;4998036;28;20539;-87
2022/04/22 03:29:38;;;;;;;8.27;3.20;;;;;;;;;;4983287;28;20191;-85
2022/04/22 03:32:05;;;;;;;2.47;2.00;;;;;;;;;;4986937;28;20175;-86
2022/04/22 03:34:32;;;;;;;3.45;2.80;;;;;;;;;;4988789;28;20188;-86
2022/04/22 03:36:59;;;;;;;3.50;2.85;;;;;;;;;;4988984;28;20204;-86
2022/04/22 03:39:25;;;;;;;7.28;3.75;;;;;;;;;;4982562;28;20207;-84
2022/04/22 03:41:51;;;;;;;2.67;2.47;;;;;;;;;;4997880;28;20192;-86
2022/04/22 03:44:19;;;;;;;3.30;3.00;;;;;;;;;;4985374;28;20392;-85
2022/04/22 03:46:45;;;;;;;3.35;3.05;;;;;;;;;;4987114;28;20199;-86
2022/04/22 03:49:11;;;;;;;4.25;3.30;;;;;;;;;;4978664;28;20187;-86
2022/04/22 03:51:37;;;;;;;3.58;3.28;;;;;;;;;;4997560;28;20284;-87
2022/04/22 03:54:03;;;;;;;3.95;2.53;;;;;;;;;;4981919;28;20672;-86
2022/04/22 03:59:14;;;;;;;4.50;2.70;;;;;;;;;;4986205;28;20190;-86
2022/04/22 04:01:40;;;;;;;11.53;3.40;;;;;;;;;;4982651;28;20203;-87
2022/04/22 04:04:06;;;;;;;6.35;3.63;;;;;;;;;;4982324;28;20447;-87
2022/04/22 04:06:32;;;;;;;4.70;2.72;;;;;;;;;;4994751;28;20188;-88
2022/04/22 04:17:14;;;;;;;4.45;3.00;;;;;;;;;;5005024;28;20206;-87
2022/04/22 04:25:09;;;;;;;3.30;3.00;;;;;;;;;;5001246;28;20194;-86
2022/04/22 04:27:36;;;;;;;3.40;3.10;;;;;;;;;;5000381;28;20198;-87
2022/04/22 04:30:03;;;;;;;3.47;2.72;;;;;;;;;;5001830;28;20592;-86
2022/04/22 04:32:29;;;;;;;3.78;3.00;;;;;;;;;;4986535;28;20171;-87
2022/04/22 04:34:55;;;;;;;3.50;3.20;;;;;;;;;;4989284;28;20250;-86
2022/04/22 04:37:21;;;;;;;4.40;2.90;;;;;;;;;;4997376;28;20217;-88
2022/04/22 04:39:47;;;;;;;3.92;2.92;;;;;;;;;;5000088;28;20449;-85
2022/04/22 04:42:13;;;;;;;3.25;2.50;;;;;;;;;;5001583;28;20294;-87
2022/04/22 04:44:39;;;;;;;3.83;3.17;;;;;;;;;;5002110;28;20684;-86
2022/04/22 04:47:05;;;;;;;4.20;3.58;;;;;;;;;;4999783;28;20441;-87
2022/04/22 04:49:31;;;;;;;4.35;3.00;;;;;;;;;;4990419;28;20198;-86
2022/04/22 04:51:57;;;;;;;4.32;3.67;;;;;;;;;;4994707;28;20246;-87
2022/04/22 04:54:24;;;;;;;4.60;3.42;;;;;;;;;;5000371;28;20203;-87
2022/04/22 04:56:53;;;;;;;4.55;3.42;;;;;;;;;;4985004;28;20195;-87
2022/04/22 04:59:20;;;;;;;3.88;3.58;;;;;;;;;;5000740;28;20176;-87
2022/04/22 05:01:46;;;;;;;4.85;3.75;;;;;;;;;;5001017;28;20199;-87
2022/04/22 05:04:12;;;;;;;4.28;3.35;;;;;;;;;;4982908;28;20641;-87
2022/04/22 05:06:38;;;;;;;4.43;3.70;;;;;;;;;;5000577;28;20195;-87
2022/04/22 05:09:04;;;;;;;4.27;3.73;;;;;;;;;;4999804;28;20183;-87
2022/04/22 05:11:30;;;;;;;4.65;3.60;;;;;;;;;;4985725;28;20461;-86
2022/04/22 05:13:58;;;;;;;9.70;4.25;;;;;;;;;;4988591;28;20224;-86
2022/04/22 05:16:24;;;;;;;4.13;3.38;;;;;;;;;;4989234;28;20215;-87
2022/04/22 05:18:50;;;;;;;7.35;3.25;;;;;;;;;;4993554;28;20220;-86
2022/04/22 05:21:16;;;;;;;7.22;3.95;;;;;;;;;;4999405;28;20210;-86
2022/04/22 05:23:42;;;;;;;5.53;4.20;;;;;;;;;;4984140;28;20197;-86
2022/04/22 05:26:08;;;;;;;3.90;3.45;;;;;;;;;;5003351;28;20790;-84
2022/04/22 05:28:34;;;;;;;5.05;3.75;;;;;;;;;;4983243;28;20675;-86
2022/04/22 05:33:45;;;;;;;5.30;4.05;;;;;;;;;;4999232;28;20206;-87
2022/04/22 05:36:11;;;;;;;8.13;4.53;;;;;;;;;;4983606;28;20203;-87
2022/04/22 05:38:37;;;;;;;4.95;3.92;;;;;;;;;;4987557;28;20179;-87
2022/04/22 05:41:03;;;;;;;6.15;4.72;;;;;;;;;;5003957;28;20269;-86
2022/04/22 05:43:29;;;;;;;5.10;4.60;;;;;;;;;;5003764;28;20187;-87
2022/04/22 05:45:55;;;;;;;7.10;5.97;;;;;;;;;;4987492;28;20187;-86
2022/04/22 05:48:21;;;;;;;11.52;4.50;;;;;;;;;;4990868;28;20569;-88
2022/04/22 05:50:47;;;;;;;8.30;5.20;;;;;;;;;;4988856;28;20296;-87
2022/04/22 05:53:13;;;;;;;7.68;5.10;;;;;;;;;;5002652;28;20179;-87
2022/04/22 05:55:39;;;;;;;8.52;4.20;;;;;;;;;;4989316;28;20254;-86
2022/04/22 05:58:05;;;;;;;7.37;6.67;;;;;;;;;;4987161;28;20326;-87
2022/04/22 06:00:31;;;;;;;9.50;5.22;;;;;;;;;;5000243;28;20435;-87
2022/04/22 06:02:57;;;;;;;8.15;5.43;;;;;;;;;;5003994;28;20216;-88
2022/04/22 06:05:24;;;;;;;9.20;7.25;;;;;;;;;;4989607;28;20179;-86
2022/04/22 06:10:35;;;;;;;8.95;6.45;;;;;;;;;;5005321;28;20201;-86
2022/04/22 06:13:02;;;;;;;10.73;7.65;;;;;;;;;;4995210;28;20228;-86
2022/04/22 06:15:29;;;;;;;10.25;9.07;;;;;;;;;;4994276;28;20207;-87
2022/04/22 06:17:55;;;;;;;12.25;9.65;;;;;;;;;;4984568;28;20212;-85
2022/04/22 06:20:21;;;;;;;11.73;8.07;;;;;;;;;;4987979;28;20184;-86
2022/04/22 06:22:47;;;;;;;10.95;8.75;;;;;;;;;;5007556;28;20298;-86
2022/04/22 06:25:13;;;;;;;10.65;8.20;;;;;;;;;;4983985;28;20180;-85
2022/04/22 06:27:40;;;;;;;13.10;8.95;;;;;;;;;;5007897;28;20198;-87
2022/04/22 06:30:07;;;;;;;9.00;7.20;;;;;;;;;;4984187;28;20185;-88
2022/04/22 06:32:33;;;;;;;12.55;7.80;;;;;;;;;;4982744;28;20176;-88
2022/04/22 06:34:59;;;;;;;12.77;8.00;;;;;;;;;;4997059;28;20621;-87
2022/04/22 06:37:25;;;;;;;11.63;8.55;;;;;;;;;;4983819;28;20215;-85
2022/04/22 06:48:06;;;;;;;10.57;9.40;;;;;;;;;;4982479;28;20266;-86
2022/04/22 06:50:33;;;;;;;14.05;9.68;;;;;;;;;;4983744;28;20203;-84
2022/04/22 06:52:59;;;;;;;12.07;8.65;;;;;;;;;;4983449;28;20235;-84
2022/04/22 06:55:28;;;;;;;14.60;9.88;;;;;;;;;;4995036;28;20191;-86
2022/04/22 06:57:57;;;;;;;8.93;7.38;;;;;;;;;;4983402;28;20728;-88
2022/04/22 07:00:23;;;;;;;9.30;7.70;;;;;;;;;;4982523;28;20190;-84
2022/04/22 07:02:51;;;;;;;11.07;8.15;;;;;;;;;;4997568;28;24849;-87
2022/04/22 07:05:28;;;;;;;8.75;7.35;;;;;;;;;;5000655;28;20206;-86
2022/04/22 07:07:54;;;;;;;11.15;7.47;;;;;;;;;;4997188;28;20239;-85
2022/04/22 07:10:22;;;;;;;7.28;6.50;;;;;;;;;;4997091;28;20212;-91
2022/04/22 07:12:48;;;;;;;6.80;6.10;;;;;;;;;;4982567;28;20223;-88
2022/04/22 07:15:45;;;;;;;8.05;7.10;;;;;;;;;;4998545;28;20188;-87
2022/04/22 07:18:13;;;;;;;8.05;6.38;;;;;;;;;;4995350;28;20204;-85
2022/04/22 07:20:45;;;;;;;10.68;6.60;;;;;;;;;;4993150;28;20187;-86
2022/04/22 07:23:13;;;;;;;8.82;7.03;;;;;;;;;;4997800;28;20190;-91
2022/04/22 07:25:43;;;;;;;12.40;7.00;;;;;;;;;;4988496;28;20561;-93
2022/04/22 07:28:09;;;;;;;7.88;6.80;;;;;;;;;;4977704;28;20203;-87
2022/04/22 07:30:35;;;;;;;11.07;7.05;;;;;;;;;;4997250;28;20207;-87
2022/04/22 07:33:01;;;;;;;6.68;5.97;;;;;;;;;;4981640;28;20213;-88
2022/04/22 07:35:27;;;;;;;9.85;7.47;;;;;;;;;;4991627;28;20187;-87
2022/04/22 07:37:54;;;;;;;6.75;6.05;;;;;;;;;;4987536;28;20237;-86
2022/04/22 07:40:21;;;;;;;9.90;7.13;;;;;;;;;;4982163;28;20244;-87
2022/04/22 07:48:28;;;;;;;7.35;6.40;;;;;;;;;;4978525;28;20198;-88
2022/04/22 07:50:54;;;;;;;7.05;6.30;;;;;;;;;;4983773;28;20190;-90
2022/04/22 07:53:21;;;;;;;7.72;5.22;;;;;;;;;;4975894;28;20196;-88
2022/04/22 07:55:48;;;;;;;6.10;4.65;;;;;;;;;;4983054;28;20626;-87
2022/04/22 07:58:14;;;;;;;5.38;4.78;;;;;;;;;;4986075;28;20687;-86
2022/04/22 08:00:41;;;;;;;5.35;4.85;;;;;;;;;;4989076;28;20291;-88
2022/04/22 08:03:07;;;;;;;6.35;5.55;;;;;;;;;;4981586;28;20195;-90
2022/04/22 08:05:34;;;;;;;6.68;5.30;;;;;;;;;;4981486;28;20259;-86
2022/04/22 08:08:00;;;;;;;7.65;4.47;;;;;;;;;;4987042;28;20182;-86
2022/04/22 08:10:26;;;;;;;6.85;5.22;;;;;;;;;;4981564;28;20195;-86
2022/04/22 08:12:52;;;;;;;6.83;5.23;;;;;;;;;;4996255;28;20254;-82
2022/04/22 08:15:21;;;;;;;4.60;4.10;;;;;;;;;;4995228;28;20534;-87
2022/04/22 08:17:51;;;;;;;7.95;4.85;;;;;;;;;;4982694;28;20498;-88
2022/04/22 08:20:17;;;;;;;5.35;4.40;;;;;;;;;;4997079;28;20189;-88
2022/04/22 08:22:46;;;;;;;6.35;4.93;;;;;;;;;;4995670;28;20195;-86
2022/04/22 08:25:12;;;;;;;8.68;5.10;;;;;;;;;;4983607;28;20217;-85
2022/04/22 08:27:39;;;;;;;5.80;4.30;;;;;;;;;;4982492;28;20187;-89
2022/04/22 08:30:14;;;;;;;6.20;4.55;;;;;;;;;;4983172;28;20194;-90
2022/04/22 08:32:40;;;;;;;7.97;5.13;;;;;;;;;;4990354;28;20188;-89
2022/04/22 08:35:08;;;;;;;7.68;4.30;;;;;;;;;;4977949;28;20195;-90
2022/04/22 08:37:34;;;;;;;6.05;4.35;;;;;;;;;;4988953;28;20214;-89
2022/04/22 08:40:00;;;;;;;5.35;4.00;;;;;;;;;;4971897;28;20214;-88
2022/04/22 08:42:26;;;;;;;9.20;4.60;;;;;;;;;;4981016;28;20183;-89
2022/04/22 08:44:53;;;;;;;10.80;4.65;;;;;;;;;;4997534;28;20181;-90
2022/04/22 08:50:16;;;;;;;3.78;3.45;;;;;;;;;;4983916;28;20209;-89
2022/04/22 08:52:42;;;;;;;4.97;4.28;;;;;;;;;;4986441;28;20232;-92
2022/04/22 08:55:09;;;;;;;4.35;3.78;;;;;;;;;;4985808;28;20200;-85
2022/04/22 08:57:35;;;;;;;5.25;4.43;;;;;;;;;;4986593;28;20204;-92
2022/04/22 09:00:03;;;;;;;6.35;4.07;;;;;;;;;;4982657;28;20272;-88
2022/04/22 09:02:30;;;;;;;5.57;3.80;;;;;;;;;;4983366;28;20179;-90
2022/04/22 09:04:56;;;;;;;6.07;4.10;;;;;;;;;;4985406;28;20296;-89
2022/04/22 09:07:26;;;;;;;4.75;3.80;;;;;;;;;;4986177;28;20192;-89
2022/04/22 09:09:52;;;;;;;4.38;3.97;;;;;;;;;;4986878;28;20192;-87
2022/04/22 09:12:21;;;;;;;3.83;3.40;;;;;;;;;;4983818;28;20243;-86
2022/04/22 09:15:00;;;;;;;3.72;3.10;;;;;;;;;;4981442;28;20187;-90
2022/04/22 09:17:36;;;;;;;4.65;3.60;;;;;;;;;;4996976;28;20301;-89
2022/04/22 09:20:03;;;;;;;4.07;3.25;;;;;;;;;;4984660;28;20184;-89
2022/04/22 09:22:35;;;;;;;3.63;3.33;;;;;;;;;;4992037;28;20199;-89
2022/04/22 09:25:02;;;;;;;4.00;3.50;;;;;;;;;;4980542;28;20191;-87
2022/04/22 09:27:38;;;;;;;4.20;3.25;;;;;;;;;;4996663;28;20187;-90
2022/04/22 09:30:11;;;;;;;3.97;3.00;;;;;;;;;;4981478;28;20254;-88
2022/04/22 09:32:41;;;;;;;3.03;2.80;;;;;;;;;;4984064;28;20183;-88
2022/04/22 09:35:11;;;;;;;3.80;3.13;;;;;;;;;;4995466;28;20188;-87
2022/04/22 09:43:26;;;;;;;2.90;2.60;;;;;;;;;;4981912;28;20198;-91
2022/04/22 09:45:53;;;;;;;3.92;3.10;;;;;;;;;;4993458;28;20539;-91
2022/04/22 09:48:20;;;;;;;3.92;2.72;;;;;;;;;;4996323;28;20203;-90
2022/04/22 09:50:46;;;;;;;8.15;2.70;;;;;;;;;;4983075;28;20658;-92
2022/04/22 09:53:19;;;;;;;3.67;2.58;;;;;;;;;;4983387;28;20184;-92
2022/04/22 09:59:01;;;;;;;5.50;3.15;;;;;;;;;;4982260;28;20561;-90
2022/04/22 10:01:36;;;;;;;5.82;3.42;;;;;;;;;;4991546;28;20198;-80
2022/04/22 10:06:51;;;;;;;3.35;3.03;;;;;;;;;;4953480;28;20213;-91
2022/04/22 10:09:36;;;;;;;4.93;2.75;;;;;;;;;;4979738;28;20191;-87
2022/04/22 10:12:12;;;;;;;5.05;3.28;;;;;;;;;;4968807;28;20192;-88
2022/04/22 10:14:43;;;;;;;3.10;2.70;;;;;;;;;;4983537;28;20230;-86
2022/04/22 10:20:17;;;;;;;4.30;2.50;;;;;;;;;;4941464;29;20181;-91
2022/04/22 10:22:50;;;;;;;3.53;3.08;;;;;;;;;;4941756;29;20181;-85
2022/04/22 10:25:17;;;;;;;5.05;3.03;;;;;;;;;;4941839;29;20228;-89
2022/04/22 10:27:46;;;;;;;2.97;2.60;;;;;;;;;;4943440;29;20184;-87
2022/04/22 10:30:13;;;;;;;2.50;2.30;;;;;;;;;;4960144;29;20192;-89
2022/04/22 10:32:41;;;;;;;3.10;2.72;;;;;;;;;;4945256;29;20185;-87
2022/04/22 10:35:07;;;;;;;3.88;2.50;;;;;;;;;;4945637;29;20189;-86
2022/04/22 10:37:34;;;;;;;4.00;3.00;;;;;;;;;;4960099;29;20276;-86
2022/04/22 10:40:01;;;;;;;3.17;2.88;;;;;;;;;;4955571;29;20192;-86
2022/04/22 10:42:33;;;;;;;4.10;3.13;;;;;;;;;;4959194;29;20181;-87
2022/04/22 10:54:08;;;;;;;5.35;2.88;;;;;;;;;;4936296;29;20189;-87
2022/04/22 10:56:34;;;;;;;2.90;2.70;;;;;;;;;;4975859;28;20208;-83
2022/04/22 10:59:15;;;;;;;3.05;2.72;;;;;;;;;;5004202;28;20195;-88
2022/04/22 11:01:42;;;;;;;2.90;2.70;;;;;;;;;;5003686;28;20187;-87
2022/04/22 11:04:18;;;;;;;2.20;2.00;;;;;;;;;;5000976;28;20191;-89
2022/04/22 11:06:44;;;;;;;2.33;2.13;;;;;;;;;;5009244;28;20187;-85
2022/04/22 11:09:10;;;;;;;4.03;2.63;;;;;;;;;;5004636;28;20218;-86
2022/04/22 11:11:40;;;;;;;3.15;2.20;;;;;;;;;;4999106;28;20259;-90
2022/04/22 11:14:19;;;;;;;3.88;2.45;;;;;;;;;;4991604;28;20277;-87
2022/04/22 11:16:45;;;;;;;3.05;2.60;;;;;;;;;;4996011;28;20202;-89
2022/04/22 11:19:13;;;;;;;3.05;2.50;;;;;;;;;;5008581;28;20242;-89
2022/04/22 11:21:40;;;;;;;3.25;2.72;;;;;;;;;;5002192;28;20251;-90
2022/04/22 11:24:10;;;;;;;3.20;2.50;;;;;;;;;;5002686;28;20193;-86
2022/04/22 11:26:37;;;;;;;3.53;2.28;;;;;;;;;;4990643;28;20183;-88
2022/04/22 11:29:07;;;;;;;3.78;2.08;;;;;;;;;;5003582;28;20179;-88
2022/04/22 11:31:34;;;;;;;2.80;2.17;;;;;;;;;;4991600;28;20227;-90
2022/04/22 11:34:05;;;;;;;2.58;2.35;;;;;;;;;;4997698;28;20226;-85
2022/04/22 11:36:42;;;;;;;3.05;2.80;;;;;;;;;;5013128;28;20800;-89
2022/04/22 11:39:13;;;;;;;3.05;2.50;;;;;;;;;;5002258;28;20212;-90
2022/04/22 11:41:50;;;;;;;3.22;3.03;;;;;;;;;;5004205;28;20585;-90
2022/04/22 11:44:21;;;;;;;2.80;2.13;;;;;;;;;;4989863;28;20235;-84
2022/04/22 11:46:47;;;;;;;2.35;2.15;;;;;;;;;;4998216;28;20722;-86
2022/04/22 11:49:13;;;;;;;3.05;2.50;;;;;;;;;;4994798;28;20188;-88
2022/04/22 11:51:41;;;;;;;2.67;2.35;;;;;;;;;;4993002;28;20280;-91
2022/04/22 11:54:07;;;;;;;2.70;2.10;;;;;;;;;;5001019;28;20188;-88
2022/04/22 11:56:35;;;;;;;2.83;2.50;;;;;;;;;;4987560;28;20243;-90
2022/04/22 11:59:01;;;;;;;2.53;2.30;;;;;;;;;;4989880;28;20174;-91
2022/04/22 12:08:00;;;;;;;2.63;2.42;;;;;;;;;;5002190;28;20195;-87
2022/04/22 12:10:00;;;;;;;3.47;2.83;;;;;;;;;;5001798;28;20285;-90
2022/04/22 12:12:29;;;;;;;3.97;3.58;;;;;;;;;;4999867;28;20225;-84
2022/04/22 12:15:00;;;;;;;3.78;2.20;;;;;;;;;;4986033;28;20192;-90
2022/04/22 12:17:26;;;;;;;3.10;2.13;;;;;;;;;;4988277;28;20206;-82
2022/04/22 12:19:53;;;;;;;2.87;2.57;;;;;;;;;;5002560;28;20430;-90
2022/04/22 12:22:19;;;;;;;2.57;2.37;;;;;;;;;;4993192;28;20439;-89
2022/04/22 12:25:04;;;;;;;3.23;2.60;;;;;;;;;;4991658;28;20450;-90
2022/04/22 12:27:31;;;;;;;4.37;2.20;;;;;;;;;;5002609;28;20409;-92
2022/04/22 12:30:03;;;;;;;2.53;2.33;;;;;;;;;;5002239;28;20424;-90
2022/04/22 12:32:31;;;;;;;2.97;2.67;;;;;;;;;;4986972;28;20428;-83
2022/04/22 12:35:16;;;;;;;2.53;2.33;;;;;;;;;;4998507;28;20652;-92
2022/04/22 12:37:53;;;;;;;2.60;1.97;;;;;;;;;;4988776;28;20448;-86
2022/04/22 12:40:21;;;;;;;3.67;1.83;;;;;;;;;;4997833;28;20434;-86
2022/04/22 12:42:47;;;;;;;2.60;2.00;;;;;;;;;;5000184;28;21225;-89
2022/04/22 12:54:12;;;;;;;2.60;1.97;;;;;;;;;;4986415;28;20455;-86
2022/04/22 12:56:39;;;;;;;2.43;2.23;;;;;;;;;;4961943;29;20523;-90
2022/04/22 12:59:06;;;;;;;3.60;2.10;;;;;;;;;;4962901;29;20402;-88
2022/04/22 13:01:42;;;;;;;3.30;2.13;;;;;;;;;;4960180;28;20439;-88
2022/04/22 13:04:19;;;;;;;2.17;2.00;;;;;;;;;;4959290;29;20453;-88
2022/04/22 13:06:47;;;;;;;4.63;2.27;;;;;;;;;;4973488;28;20967;-90
2022/04/22 13:09:14;;;;;;;2.20;2.00;;;;;;;;;;4943872;29;20417;-89
2022/04/22 13:11:40;;;;;;;2.30;2.10;;;;;;;;;;4945198;29;20421;-86
2022/04/22 13:14:07;;;;;;;2.90;2.70;;;;;;;;;;4962179;29;20470;-90
2022/04/22 13:16:33;;;;;;;3.63;2.57;;;;;;;;;;4959371;29;20473;-88
2022/04/22 13:19:03;;;;;;;2.63;2.40;;;;;;;;;;4959883;29;20446;-92
2022/04/22 13:21:29;;;;;;;2.30;2.10;;;;;;;;;;4959072;29;20414;-88
2022/04/22 13:23:55;;;;;;;2.87;2.40;;;;;;;;;;4960048;29;20527;-90
2022/04/22 13:26:22;;;;;;;3.00;2.73;;;;;;;;;;4947862;29;20399;-88
2022/04/22 13:28:49;;;;;;;3.90;2.20;;;;;;;;;;4996438;28;20390;-87
2022/04/22 13:31:18;;;;;;;2.60;2.40;;;;;;;;;;4984839;28;20479;-91
2022/04/22 13:33:44;;;;;;;1.93;1.73;;;;;;;;;;4995643;28;20522;-90
2022/04/22 13:36:11;;;;;;;2.77;2.40;;;;;;;;;;4983284;28;20464;-89
2022/04/22 13:38:38;;;;;;;1.83;1.73;;;;;;;;;;4986195;28;20810;-91
2022/04/22 13:41:07;;;;;;;2.30;1.87;;;;;;;;;;4988429;28;20430;-91
2022/04/22 13:43:33;;;;;;;2.10;1.90;;;;;;;;;;4988703;28;20443;-91
2022/04/22 13:54:17;;;;;;;3.30;2.30;;;;;;;;;;5000880;28;20551;-87
2022/04/22 13:56:44;;;;;;;2.60;2.40;;;;;;;;;;4985035;28;20454;-90
2022/04/22 13:59:10;;;;;;;2.00;1.90;;;;;;;;;;4990109;28;20400;-91
2022/04/22 14:01:39;;;;;;;2.60;2.30;;;;;;;;;;4992917;28;20428;-87
2022/04/22 14:04:06;;;;;;;3.13;1.80;;;;;;;;;;4991212;28;20423;-87
2022/04/22 14:06:32;;;;;;;3.20;2.20;;;;;;;;;;4994020;28;20439;-92
2022/04/22 14:08:58;;;;;;;2.00;1.90;;;;;;;;;;5003089;28;20455;-86
2022/04/22 14:11:27;;;;;;;5.23;2.53;;;;;;;;;;4989809;28;20834;-86
2022/04/22 14:13:53;;;;;;;2.60;2.33;;;;;;;;;;4992486;28;20478;-87
2022/04/22 14:16:19;;;;;;;3.20;3.00;;;;;;;;;;5000423;28;20715;-90
2022/04/22 14:18:45;;;;;;;2.73;2.20;;;;;;;;;;4999685;28;20415;-83
2022/04/22 14:21:11;;;;;;;3.90;2.30;;;;;;;;;;4987160;28;20442;-87
2022/04/22 14:23:37;;;;;;;2.37;2.17;;;;;;;;;;5006342;28;20425;-87
2022/04/22 14:26:03;;;;;;;2.33;2.13;;;;;;;;;;4991854;28;20419;-92
2022/04/22 14:28:29;;;;;;;2.40;2.20;;;;;;;;;;5001578;28;20646;-88
2022/04/22 14:30:55;;;;;;;2.17;1.97;;;;;;;;;;4998742;28;20449;-87
2022/04/22 14:33:22;;;;;;;3.80;2.60;;;;;;;;;;4991423;28;20445;-91
2022/04/22 14:35:51;;;;;;;2.63;2.23;;;;;;;;;;4987081;28;20447;-85
2022/04/22 14:38:17;;;;;;;2.30;2.07;;;;;;;;;;5007072;28;20970;-85
2022/04/22 14:40:43;;;;;;;1.83;1.63;;;;;;;;;;4999456;28;20434;-92
2022/04/22 14:43:09;;;;;;;3.30;2.00;;;;;;;;;;5006666;28;20441;-89
2022/04/22 14:45:37;;;;;;;4.00;2.33;;;;;;;;;;5002468;28;20199;-87
2022/04/22 14:48:03;;;;;;;2.65;2.45;;;;;;;;;;4986360;28;20433;-90
2022/04/22 14:50:31;;;;;;;5.53;2.70;;;;;;;;;;5000321;28;20248;-87
2022/04/22 14:53:10;;;;;;;4.07;2.25;;;;;;;;;;5007224;28;20434;-91
2022/04/22 14:55:51;;;;;;;2.33;1.90;;;;;;;;;;5003758;28;20186;-88
2022/04/22 14:58:17;;;;;;;2.87;2.20;;;;;;;;;;5002813;28;20210;-91
2022/04/22 15:00:43;;;;;;;2.93;2.57;;;;;;;;;;5002069;28;20438;-87
2022/04/22 15:03:24;;;;;;;3.17;2.20;;;;;;;;;;4987693;28;20435;-86
2022/04/22 15:06:06;;;;;;;2.35;1.95;;;;;;;;;;5003457;28;20460;-91
2022/04/22 15:08:41;;;;;;;5.60;2.90;;;;;;;;;;5001264;28;20183;-87
2022/04/22 15:11:07;;;;;;;2.92;2.47;;;;;;;;;;4989014;28;20179;-85
2022/04/22 15:13:36;;;;;;;4.55;3.22;;;;;;;;;;4999965;28;20255;-87
2022/04/22 15:16:05;;;;;;;2.53;2.33;;;;;;;;;;5002756;28;20197;-87
2022/04/22 15:24:17;;;;;;;2.17;1.98;;;;;;;;;;4987305;28;20456;-85
2022/04/22 15:26:43;;;;;;;4.40;2.60;;;;;;;;;;4987541;28;20174;-86
2022/04/22 15:29:13;;;;;;;6.88;2.42;;;;;;;;;;4990075;28;20437;-90
2022/04/22 15:32:04;;;;;;;2.40;2.20;;;;;;;;;;4996561;28;20265;-89
2022/04/22 15:34:36;;;;;;;2.78;2.55;;;;;;;;;;5007911;28;20193;-87
2022/04/22 15:37:05;;;;;;;2.20;1.80;;;;;;;;;;4990573;28;20202;-88
2022/04/22 15:39:37;;;;;;;2.75;2.40;;;;;;;;;;4994982;28;20196;-90
2022/04/22 15:42:11;;;;;;;3.00;2.75;;;;;;;;;;4992769;28;20196;-91
2022/04/22 15:44:45;;;;;;;3.45;2.40;;;;;;;;;;4987108;28;20178;-94
2022/04/22 15:47:26;;;;;;;2.30;1.95;;;;;;;;;;4989983;28;20209;-88
2022/04/22 15:49:56;;;;;;;2.75;2.05;;;;;;;;;;5003757;28;20232;-93
2022/04/22 15:52:28;;;;;;;2.85;2.00;;;;;;;;;;5002620;28;20188;-92
2022/04/22 15:54:54;;;;;;;2.13;1.92;;;;;;;;;;4989445;28;20194;-90
2022/04/22 15:57:30;;;;;;;5.95;2.97;;;;;;;;;;5003136;28;20236;-92
2022/04/22 15:59:56;;;;;;;6.68;2.75;;;;;;;;;;4987113;28;20191;-89
2022/04/22 16:02:41;;;;;;;2.50;2.10;;;;;;;;;;4988623;28;20170;-92
2022/04/22 16:05:08;;;;;;;3.13;1.83;;;;;;;;;;4989165;28;20183;-90
2022/04/22 16:07:40;;;;;;;3.45;2.20;;;;;;;;;;4989483;28;20209;-91
2022/04/22 16:10:09;;;;;;;2.50;2.30;;;;;;;;;;4995064;28;20198;-88
2022/04/22 16:15:45;;;;;;;2.88;2.22;;;;;;;;;;5006191;28;20240;-94
2022/04/22 16:18:11;;;;;;;2.38;2.17;;;;;;;;;;4990085;28;20769;-87
2022/04/22 16:20:47;;;;;;;3.58;2.20;;;;;;;;;;4986122;28;20253;-87
2022/04/22 16:23:16;;;;;;;2.50;2.28;;;;;;;;;;4995870;28;20197;-89
2022/04/22 16:25:42;;;;;;;3.05;2.75;;;;;;;;;;4983839;28;20274;-90
2022/04/22 16:28:14;;;;;;;1.90;1.70;;;;;;;;;;4994991;28;20208;-92
2022/04/22 16:31:16;;;;;;;1.98;1.88;;;;;;;;;;4991585;28;20180;-92
2022/04/22 16:33:42;;;;;;;2.60;2.15;;;;;;;;;;4967133;28;20247;-93
2022/04/22 16:36:11;;;;;;;2.30;2.10;;;;;;;;;;5000876;28;20241;-91